Terminal Aerodrome Forecast
Issued by NWS Cleveland, OH

Home | Current Version | Previous Version | Text Only | Print | Product List | Glossary On
Versions: 1 2 3 4 5 6 7 8 9 10 11 12
000
FTUS41 KCLE 022330
TAFMFD
TAF
KMFD 022330Z 0300/0324 21015G25KT P6SM SCT050
     FM030400 22012G20KT P6SM BKN100
      TEMPO 0306/0309 3SM SHRA OVC035
     FM031200 26010KT P6SM BKN035
      TEMPO 0313/0316 BKN025
     FM031900 28010KT P6SM SCT035=

USA.gov is the U.S. government's official web portal to all federal, state and local government web resources and services.